Time;durP1;ratioP1;P1;durP2;ratioP2;P2;SDS_P1;SDS_P2;PMS_P1;PMS_P2;Temp;Humidity;BMP_temperature;BMP_pressure;BME280_temperature;BME280_humidity;BME280_pressure;Samples;Min_cycle;Max_cycle;Signal;HPM_P1;HPM_P2
2022/09/07 00:02:36;;;;;;;1.23;1.10;;;;;;;17.86;55.65;101473.00;6207848;28;20233;-71
2022/09/07 00:05:57;;;;;;;1.10;0.98;;;;;;;17.80;55.22;101480.00;6219328;28;21741;-71
2022/09/07 00:09:20;;;;;;;1.38;1.10;;;;;;;17.81;55.80;101483.59;6221174;28;20319;-70
2022/09/07 00:12:41;;;;;;;1.52;1.33;;;;;;;17.81;55.52;101498.09;6216561;28;20228;-70
2022/09/07 00:16:05;;;;;;;1.92;1.10;;;;;;;17.80;55.66;101492.78;6209845;28;20232;-69
2022/09/07 00:19:26;;;;;;;3.15;1.17;;;;;;;17.82;55.81;101485.28;6222097;28;20236;-70
2022/09/07 00:22:47;;;;;;;2.67;0.90;;;;;;;17.78;55.58;101473.00;6218917;28;20244;-69
2022/09/07 00:26:12;;;;;;;1.48;1.38;;;;;;;17.72;55.97;101474.53;6216576;28;20232;-70
2022/09/07 00:29:33;;;;;;;4.53;1.33;;;;;;;17.74;56.01;101464.31;6183468;28;1126275;-70
2022/09/07 00:32:54;;;;;;;1.10;0.80;;;;;;;17.76;55.77;101462.25;6223820;28;20236;-70
2022/09/07 00:36:15;;;;;;;1.60;1.00;;;;;;;17.73;55.94;101461.75;6214220;28;20252;-69
2022/09/07 00:39:37;;;;;;;1.77;1.23;;;;;;;17.76;55.61;101461.41;6224428;28;20302;-70
2022/09/07 00:42:59;;;;;;;2.55;0.98;;;;;;;17.76;55.83;101458.69;6224576;28;20245;-69
2022/09/07 00:46:22;;;;;;;1.13;1.10;;;;;;;17.75;55.95;101448.81;6219419;28;20229;-70
2022/09/07 00:49:46;;;;;;;1.42;1.15;;;;;;;17.72;56.05;101441.81;6226566;28;20225;-70
2022/09/07 00:53:13;;;;;;;1.75;1.27;;;;;;;17.74;56.01;101437.03;6218450;28;20657;-70
2022/09/07 00:56:38;;;;;;;1.38;1.27;;;;;;;17.72;55.92;101440.94;6222057;28;20228;-69
2022/09/07 01:00:01;;;;;;;1.73;1.63;;;;;;;17.75;55.87;101440.63;6220948;28;20236;-70
2022/09/07 01:03:25;;;;;;;1.30;1.20;;;;;;;17.69;55.66;101438.56;6220486;28;20795;-69
2022/09/07 01:06:46;;;;;;;4.05;1.77;;;;;;;17.78;55.78;101443.00;6221732;28;20311;-70
2022/09/07 01:10:09;;;;;;;1.13;0.98;;;;;;;17.72;55.86;101441.81;6216221;28;20242;-69
2022/09/07 01:13:30;;;;;;;1.50;1.13;;;;;;;17.74;56.11;101437.03;6209015;28;20604;-69
2022/09/07 01:17:04;;;;;;;2.88;1.10;;;;;;;17.84;55.55;101434.13;6223510;28;20664;-70
2022/09/07 01:20:53;;;;;;;1.80;1.10;;;;;;;17.80;55.75;101427.31;6220882;28;20232;-70
2022/09/07 01:24:37;;;;;;;1.92;1.70;;;;;;;17.76;55.50;101428.66;6222148;28;20612;-70
2022/09/07 01:28:10;;;;;;;2.42;1.30;;;;;;;17.86;55.26;101427.50;6214798;28;20343;-70
2022/09/07 01:31:41;;;;;;;2.83;2.25;;;;;;;17.79;55.39;101412.84;6219067;28;20224;-70
2022/09/07 01:35:10;;;;;;;1.10;0.90;;;;;;;17.78;55.08;101419.31;6221250;28;20500;-71
2022/09/07 01:38:38;;;;;;;1.80;1.23;;;;;;;17.81;55.57;101427.16;6178991;28;20243;-70
2022/09/07 01:42:06;;;;;;;1.10;0.85;;;;;;;17.84;55.67;101415.91;6220071;28;20208;-69
2022/09/07 01:45:31;;;;;;;2.05;1.55;;;;;;;17.87;54.63;101414.72;6207605;28;20315;-70
2022/09/07 01:48:56;;;;;;;1.70;1.10;;;;;;;17.92;54.78;101413.16;6219531;28;20258;-70
2022/09/07 01:52:28;;;;;;;1.05;0.95;;;;;;;17.90;54.88;101406.19;6209499;28;20632;-69
2022/09/07 01:55:56;;;;;;;1.05;1.00;;;;;;;17.81;54.63;101399.88;6210851;28;20575;-70
2022/09/07 01:59:23;;;;;;;1.38;1.20;;;;;;;17.74;55.02;101398.00;6206017;28;20224;-70
2022/09/07 02:02:50;;;;;;;1.05;0.98;;;;;;;17.87;54.59;101401.94;6219797;28;20222;-69
2022/09/07 02:06:17;;;;;;;2.88;1.58;;;;;;;17.93;54.79;101401.25;6196025;28;20233;-70
2022/09/07 02:09:47;;;;;;;1.67;0.98;;;;;;;17.93;54.82;101400.38;6205210;28;20228;-71
2022/09/07 02:13:13;;;;;;;3.13;1.30;;;;;;;17.72;54.64;101403.63;6227115;28;20232;-70
2022/09/07 02:16:38;;;;;;;1.75;1.65;;;;;;;17.68;54.90;101410.44;6212254;28;20560;-71
2022/09/07 02:20:06;;;;;;;1.17;1.15;;;;;;;17.68;55.00;101406.84;6205159;28;20289;-69
2022/09/07 02:23:31;;;;;;;1.13;1.10;;;;;;;17.69;55.24;101408.56;6223371;28;20223;-71
2022/09/07 02:26:53;;;;;;;2.10;1.38;;;;;;;17.63;55.23;101399.16;6221305;28;20232;-70
2022/09/07 02:30:15;;;;;;;1.33;1.23;;;;;;;17.67;55.19;101397.81;6175405;28;20347;-70
2022/09/07 02:33:36;;;;;;;1.00;0.90;;;;;;;17.64;55.43;101395.44;6199151;28;20236;-69
2022/09/07 02:37:01;;;;;;;2.17;2.05;;;;;;;17.60;55.30;101399.53;6221660;28;20237;-70
2022/09/07 02:40:22;;;;;;;1.98;0.93;;;;;;;17.63;55.39;101393.72;6214638;28;20229;-70
2022/09/07 02:43:43;;;;;;;2.88;1.58;;;;;;;17.59;55.40;101392.34;6211498;28;20228;-72
2022/09/07 02:47:19;;;;;;;1.80;1.17;;;;;;;17.53;55.37;101391.16;6218632;28;20224;-68
2022/09/07 02:50:49;;;;;;;1.58;1.48;;;;;;;17.51;55.63;101385.03;6199156;28;20698;-70
2022/09/07 02:54:32;;;;;;;4.63;2.03;;;;;;;17.45;55.75;101380.22;6214257;28;20688;-70
2022/09/07 02:58:00;;;;;;;2.13;1.63;;;;;;;17.48;55.71;101385.31;6222515;28;20240;-70
2022/09/07 03:01:36;;;;;;;2.58;1.33;;;;;;;17.52;56.10;101383.16;6211093;28;20277;-70
2022/09/07 03:05:04;;;;;;;1.00;1.00;;;;;;;17.50;55.75;101383.31;6218864;28;20236;-71
2022/09/07 03:08:29;;;;;;;1.85;1.73;;;;;;;17.53;55.90;101371.22;6221378;28;20227;-70
2022/09/07 03:11:52;;;;;;;1.90;1.67;;;;;;;17.49;55.97;101376.16;6216715;28;20255;-70
2022/09/07 03:15:14;;;;;;;1.35;1.23;;;;;;;17.50;55.14;101366.94;6188049;28;20236;-70
2022/09/07 03:18:35;;;;;;;1.48;1.13;;;;;;;17.46;56.05;101372.88;6216427;28;20476;-69
2022/09/07 03:21:56;;;;;;;3.95;1.63;;;;;;;17.43;56.16;101363.19;6215072;28;21242;-70
2022/09/07 03:25:18;;;;;;;2.78;1.58;;;;;;;17.46;55.97;101362.81;6217218;28;21426;-70
2022/09/07 03:28:40;;;;;;;1.52;1.35;;;;;;;17.43;55.97;101354.13;6204832;28;20252;-69
2022/09/07 03:32:02;;;;;;;2.75;1.88;;;;;;;17.34;56.49;101355.13;6209737;28;20494;-70
2022/09/07 03:35:23;;;;;;;2.42;2.08;;;;;;;17.31;56.33;101348.16;6201015;28;20245;-71
2022/09/07 03:38:44;;;;;;;2.30;1.30;;;;;;;17.34;56.50;101342.38;6208565;28;20549;-70
2022/09/07 03:42:05;;;;;;;2.15;1.95;;;;;;;17.36;56.27;101334.88;6212012;28;20311;-70
2022/09/07 03:45:27;;;;;;;1.52;1.42;;;;;;;17.31;56.33;101342.69;6190124;28;20236;-70
2022/09/07 03:48:49;;;;;;;1.77;1.52;;;;;;;17.29;55.97;101336.56;6196200;28;20228;-70
2022/09/07 03:52:12;;;;;;;1.70;1.60;;;;;;;17.37;56.41;101333.88;6216786;28;20514;-70
2022/09/07 03:55:33;;;;;;;2.93;2.40;;;;;;;17.31;56.12;101326.34;6206305;28;20437;-70
2022/09/07 03:58:55;;;;;;;1.35;1.25;;;;;;;17.24;56.65;101319.03;6208907;28;20236;-71
2022/09/07 04:02:17;;;;;;;2.33;1.80;;;;;;;17.36;56.12;101317.66;6217958;28;21073;-71
2022/09/07 04:05:38;;;;;;;2.03;1.60;;;;;;;17.29;56.27;101316.66;6217976;28;20224;-70
2022/09/07 04:09:02;;;;;;;2.15;1.27;;;;;;;17.26;56.54;101309.66;6202958;28;20228;-71
2022/09/07 04:12:24;;;;;;;4.10;2.20;;;;;;;17.30;56.41;101304.72;6209972;28;20774;-70
2022/09/07 04:15:45;;;;;;;1.63;1.47;;;;;;;17.27;56.77;101303.16;6207022;28;20221;-70
2022/09/07 04:19:08;;;;;;;3.05;1.33;;;;;;;17.28;56.83;101294.00;6207572;28;20233;-69
2022/09/07 04:22:29;;;;;;;1.38;1.23;;;;;;;17.25;56.77;101288.03;6218808;28;20229;-70
2022/09/07 04:25:51;;;;;;;2.58;1.58;;;;;;;17.25;56.52;101280.69;6218163;28;20248;-70
2022/09/07 04:29:13;;;;;;;4.53;2.63;;;;;;;17.18;56.75;101274.22;6222079;28;20247;-70
2022/09/07 04:32:34;;;;;;;2.13;1.55;;;;;;;17.18;57.24;101274.22;6218213;28;20237;-70
2022/09/07 04:35:56;;;;;;;4.63;1.60;;;;;;;17.22;56.55;101285.63;6221346;28;20236;-70
2022/09/07 04:39:17;;;;;;;1.73;1.43;;;;;;;17.21;56.72;101290.22;6221784;28;20259;-70
2022/09/07 04:42:38;;;;;;;2.67;2.37;;;;;;;17.22;56.36;101291.94;6220397;28;20228;-70
2022/09/07 04:46:02;;;;;;;3.13;2.88;;;;;;;17.24;56.54;101292.63;6220707;28;20228;-71
2022/09/07 04:49:23;;;;;;;2.10;1.90;;;;;;;17.28;56.18;101302.16;6222431;28;20244;-69
2022/09/07 04:52:46;;;;;;;1.92;1.83;;;;;;;17.19;55.86;101311.34;6220029;28;20221;-70
2022/09/07 04:56:07;;;;;;;1.88;1.73;;;;;;;16.99;56.58;101320.00;6220398;28;20244;-70
2022/09/07 04:59:28;;;;;;;3.47;1.73;;;;;;;16.77;57.39;101335.94;6219224;28;20232;-70
2022/09/07 05:02:49;;;;;;;4.28;1.67;;;;;;;16.91;56.93;101358.97;6217107;28;20315;-69
2022/09/07 05:06:11;;;;;;;2.47;2.27;;;;;;;16.98;57.28;101389.94;6215190;28;20656;-68
2022/09/07 05:09:33;;;;;;;1.95;1.38;;;;;;;16.99;57.18;101418.91;6220554;28;20232;-69
2022/09/07 05:12:54;;;;;;;2.53;1.55;;;;;;;16.85;57.69;101415.97;6220225;28;20504;-69
2022/09/07 05:16:16;;;;;;;2.08;1.40;;;;;;;17.03;57.95;101378.56;6218565;28;20248;-69
2022/09/07 05:19:37;;;;;;;1.73;1.42;;;;;;;17.22;56.78;101402.81;6225351;28;20626;-69
2022/09/07 05:22:58;;;;;;;3.38;1.70;;;;;;;17.19;57.01;101411.34;6227509;28;20961;-70
2022/09/07 05:26:23;;;;;;;3.08;1.58;;;;;;;17.11;57.35;101398.53;6222442;28;20248;-70
2022/09/07 05:29:44;;;;;;;2.13;1.92;;;;;;;17.11;57.53;101417.59;6223706;28;20339;-69
2022/09/07 05:33:07;;;;;;;2.97;1.77;;;;;;;17.23;57.85;101404.53;6212410;28;20229;-70
2022/09/07 05:36:29;;;;;;;2.53;1.27;;;;;;;17.44;56.76;101394.00;6218739;28;20260;-69
2022/09/07 05:39:53;;;;;;;2.65;2.13;;;;;;;16.92;58.04;101400.69;6219197;28;20237;-69
2022/09/07 05:43:16;;;;;;;3.05;1.58;;;;;;;17.38;57.53;101375.59;6217838;28;20718;-70
2022/09/07 05:46:37;;;;;;;2.85;1.40;;;;;;;17.38;56.66;101384.63;6223639;28;20221;-70
2022/09/07 05:49:58;;;;;;;2.13;1.92;;;;;;;17.13;57.38;101385.59;6233057;28;20232;-71
2022/09/07 05:53:20;;;;;;;2.58;2.13;;;;;;;17.36;56.76;101366.72;6232562;28;20228;-69
2022/09/07 05:56:41;;;;;;;1.80;1.48;;;;;;;17.24;57.10;101368.94;6213921;28;20237;-69
2022/09/07 06:00:04;;;;;;;2.40;1.83;;;;;;;17.30;57.86;101368.25;6229828;28;20541;-69
2022/09/07 06:03:33;;;;;;;4.05;1.65;;;;;;;17.54;56.30;101367.47;6222105;28;20233;-68
2022/09/07 06:06:54;;;;;;;4.47;2.47;;;;;;;17.73;56.00;101353.50;6222186;28;20233;-68
2022/09/07 06:10:15;;;;;;;2.80;1.23;;;;;;;17.67;56.38;101356.91;6210514;28;20233;-69
2022/09/07 06:13:37;;;;;;;4.13;1.80;;;;;;;17.34;56.49;101358.72;6227515;28;20618;-69
2022/09/07 06:16:59;;;;;;;1.45;1.35;;;;;;;17.60;56.59;101358.63;6221619;28;21632;-69
2022/09/07 06:20:20;;;;;;;3.97;2.08;;;;;;;17.76;55.95;101364.06;6225378;28;20352;-69
2022/09/07 06:23:42;;;;;;;2.40;1.30;;;;;;;17.33;57.38;101383.44;6217220;28;20434;-69
2022/09/07 06:27:03;;;;;;;2.22;1.67;;;;;;;17.11;58.49;101387.63;6221197;28;20237;-69
2022/09/07 06:30:24;;;;;;;1.52;1.42;;;;;;;16.99;59.39;101377.19;6217123;28;20240;-69
2022/09/07 06:33:48;;;;;;;3.23;1.93;;;;;;;16.82;60.84;101384.47;6223031;28;20232;-70
2022/09/07 06:37:09;;;;;;;1.60;1.33;;;;;;;16.93;60.77;101384.16;6228174;28;20244;-68
2022/09/07 06:40:33;;;;;;;3.73;2.03;;;;;;;17.18;60.27;101390.53;6210067;28;20641;-70
2022/09/07 06:43:54;;;;;;;1.60;1.43;;;;;;;17.27;60.00;101384.09;6222208;28;20240;-70
2022/09/07 06:47:15;;;;;;;3.38;1.90;;;;;;;16.93;61.17;101383.31;6226596;28;20485;-70
2022/09/07 06:50:38;;;;;;;4.68;2.20;;;;;;;17.08;61.76;101390.69;6213330;28;20225;-69
2022/09/07 06:54:00;;;;;;;4.45;1.63;;;;;;;17.03;62.74;101387.59;6217562;28;20661;-69
2022/09/07 06:57:21;;;;;;;3.87;2.10;;;;;;;16.64;64.50;101383.72;6233259;28;20315;-69
2022/09/07 07:00:42;;;;;;;2.20;1.87;;;;;;;16.43;65.92;101380.50;6211616;28;20224;-69
2022/09/07 07:04:03;;;;;;;3.25;2.38;;;;;;;16.54;66.15;101383.81;6220794;28;20228;-69
2022/09/07 07:07:25;;;;;;;2.63;1.93;;;;;;;16.58;66.90;101384.34;6218914;28;20527;-69
2022/09/07 07:10:47;;;;;;;2.28;2.08;;;;;;;16.77;67.17;101381.38;6217942;28;20360;-68
2022/09/07 07:14:13;;;;;;;2.47;2.30;;;;;;;16.89;67.38;101376.47;6211849;28;20395;-69
2022/09/07 07:17:34;;;;;;;4.30;2.93;;;;;;;16.54;69.33;101377.53;6217944;28;20237;-69
2022/09/07 07:20:56;;;;;;;3.43;2.03;;;;;;;16.45;69.69;101375.75;6218357;28;20509;-69
2022/09/07 07:24:18;;;;;;;4.77;2.77;;;;;;;16.58;70.16;101373.47;6208704;28;20311;-69
2022/09/07 07:27:39;;;;;;;6.03;5.33;;;;;;;16.61;70.37;101368.53;6209615;28;20353;-69
2022/09/07 07:31:02;;;;;;;4.60;3.00;;;;;;;16.61;70.49;101368.53;6209174;28;20236;-69
2022/09/07 07:34:25;;;;;;;8.03;4.37;;;;;;;16.71;70.53;101362.97;6201235;28;20229;-69
2022/09/07 07:37:47;;;;;;;4.03;2.83;;;;;;;16.78;70.39;101361.28;6222097;28;20575;-69
2022/09/07 07:41:10;;;;;;;2.43;2.23;;;;;;;16.89;70.57;101355.56;6222761;28;20228;-70
2022/09/07 07:44:31;;;;;;;5.60;3.33;;;;;;;17.05;70.16;101346.56;6200742;28;20544;-69
2022/09/07 07:47:52;;;;;;;3.73;2.80;;;;;;;17.02;70.07;101322.41;6208700;28;20255;-69
2022/09/07 07:51:14;;;;;;;5.50;2.55;;;;;;;17.15;70.24;101303.66;6208268;28;20232;-69
2022/09/07 07:54:35;;;;;;;3.63;2.20;;;;;;;17.58;68.75;101280.75;6218117;28;20220;-70
2022/09/07 07:57:58;;;;;;;3.55;2.15;;;;;;;17.45;69.00;101292.97;6226096;28;20231;-69
2022/09/07 08:01:19;;;;;;;3.58;2.50;;;;;;;17.23;69.05;101309.97;6229582;28;20244;-70
2022/09/07 08:04:40;;;;;;;2.80;2.40;;;;;;;17.00;69.74;101298.03;6219279;28;20259;-70
2022/09/07 08:08:01;;;;;;;3.67;2.30;;;;;;;17.14;69.23;101285.63;6213400;28;20235;-70
2022/09/07 08:11:23;;;;;;;2.40;2.20;;;;;;;17.26;69.07;101287.84;6219905;28;20314;-69
2022/09/07 08:14:47;;;;;;;4.13;3.15;;;;;;;17.11;69.29;101303.16;6219854;28;20232;-70
2022/09/07 08:18:08;;;;;;;6.18;2.60;;;;;;;17.23;68.82;101300.97;6230225;28;20224;-71
2022/09/07 08:21:29;;;;;;;2.88;2.45;;;;;;;17.48;68.03;101299.97;6233280;28;20612;-71
2022/09/07 08:24:50;;;;;;;4.75;2.90;;;;;;;17.51;67.73;101283.28;6221119;28;20224;-72
2022/09/07 08:28:11;;;;;;;2.67;2.00;;;;;;;17.20;69.11;101290.41;6222029;28;20256;-71
2022/09/07 08:31:33;;;;;;;1.73;1.63;;;;;;;16.88;70.07;101309.41;6209847;28;20359;-71
2022/09/07 08:34:54;;;;;;;2.08;1.80;;;;;;;16.77;69.97;101305.97;6219912;28;20262;-70
2022/09/07 08:38:15;;;;;;;3.47;2.17;;;;;;;16.82;70.83;101308.19;6228565;28;20224;-71
2022/09/07 08:42:07;;;;;;;2.73;2.53;;;;;;;16.81;71.36;101308.38;6226530;28;20233;-71
2022/09/07 08:45:32;;;;;;;2.83;1.90;;;;;;;16.94;71.13;101306.88;6230832;28;20248;-70
2022/09/07 08:48:58;;;;;;;3.30;2.35;;;;;;;16.96;71.08;101301.28;6227207;28;20224;-71
2022/09/07 08:52:24;;;;;;;3.00;2.70;;;;;;;17.08;71.04;101314.41;6229774;28;20236;-71
2022/09/07 08:55:49;;;;;;;3.00;2.70;;;;;;;17.20;69.34;101328.56;6216229;28;20302;-72
2022/09/07 08:59:17;;;;;;;2.95;2.35;;;;;;;17.15;69.65;101328.19;6222725;28;20229;-71
2022/09/07 09:02:39;;;;;;;2.10;1.90;;;;;;;17.26;69.45;101349.69;6219569;28;20534;-71
2022/09/07 09:06:08;;;;;;;8.65;7.25;;;;;;;17.20;69.23;101355.81;6221931;28;20225;-70
2022/09/07 09:09:44;;;;;;;7.38;3.42;;;;;;;17.36;68.96;101353.97;6233007;28;20232;-71
2022/09/07 09:13:17;;;;;;;4.55;2.95;;;;;;;17.64;68.76;101354.53;6236504;28;20216;-72
2022/09/07 09:16:42;;;;;;;3.60;2.35;;;;;;;17.96;66.83;101349.03;6230911;28;20244;-71
2022/09/07 09:20:18;;;;;;;2.35;2.13;;;;;;;18.28;65.80;101345.41;6231050;28;20311;-71
2022/09/07 09:23:42;;;;;;;2.67;2.47;;;;;;;18.74;63.95;101332.81;6237687;28;20268;-71
2022/09/07 09:27:04;;;;;;;2.67;2.15;;;;;;;19.07;63.27;101328.88;6228719;28;20259;-71
2022/09/07 09:30:25;;;;;;;1.77;1.58;;;;;;;19.55;62.71;101330.44;6229286;28;20560;-72
2022/09/07 09:34:08;;;;;;;3.28;1.70;;;;;;;19.69;60.94;101335.16;6228988;28;20421;-71
2022/09/07 09:37:39;;;;;;;4.43;2.60;;;;;;;19.36;62.29;101342.72;6216955;28;20970;-70
2022/09/07 09:41:05;;;;;;;3.20;2.13;;;;;;;19.21;61.54;101354.59;6219437;28;20233;-71
2022/09/07 09:44:31;;;;;;;2.72;1.98;;;;;;;18.30;63.16;101352.41;6226441;28;20240;-71
2022/09/07 09:47:54;;;;;;;3.90;2.78;;;;;;;18.15;64.57;101347.81;6219767;28;20228;-71
2022/09/07 09:51:15;;;;;;;3.00;2.78;;;;;;;18.68;64.06;101344.47;6233615;28;20228;-71
2022/09/07 09:54:40;;;;;;;5.95;4.07;;;;;;;18.46;63.73;101340.59;6227589;28;20225;-71
2022/09/07 09:58:04;;;;;;;2.15;1.95;;;;;;;18.67;63.44;101337.31;6244594;28;20224;-72
2022/09/07 10:01:31;;;;;;;3.05;2.17;;;;;;;19.34;61.74;101324.84;6221645;28;20606;-71
2022/09/07 10:04:52;;;;;;;4.78;2.25;;;;;;;19.98;61.13;101328.88;6214182;28;20567;-72
2022/09/07 10:08:19;;;;;;;2.28;2.05;;;;;;;20.13;59.70;101329.78;6232189;28;20236;-72
2022/09/07 10:11:43;;;;;;;3.05;2.70;;;;;;;19.72;60.37;101334.75;6220487;28;20303;-71
2022/09/07 10:15:07;;;;;;;5.40;2.50;;;;;;;20.17;59.33;101331.91;6227454;28;20601;-71
2022/09/07 10:18:33;;;;;;;2.80;2.28;;;;;;;19.66;60.19;101344.56;6228407;28;20232;-71
2022/09/07 10:21:56;;;;;;;4.32;2.90;;;;;;;20.13;59.56;101327.03;6227217;28;20240;-71
2022/09/07 10:25:29;;;;;;;2.17;2.00;;;;;;;20.86;57.68;101324.31;6231441;28;20229;-72
2022/09/07 10:29:07;;;;;;;2.20;2.00;;;;;;;21.58;56.17;101328.72;6224544;28;20216;-73
2022/09/07 10:32:55;;;;;;;3.17;2.00;;;;;;;21.48;55.78;101326.31;6230950;28;20227;-72
2022/09/07 10:36:26;;;;;;;2.70;2.30;;;;;;;21.39;55.95;101313.75;6220115;28;20229;-70
2022/09/07 10:39:58;;;;;;;2.45;2.25;;;;;;;21.69;54.97;101311.72;6231128;28;20228;-71
2022/09/07 10:43:34;;;;;;;2.25;1.85;;;;;;;22.52;53.21;101316.34;6231595;28;20232;-71
2022/09/07 10:47:01;;;;;;;2.72;2.53;;;;;;;21.82;54.68;101320.09;6232238;28;20236;-71
2022/09/07 10:50:30;;;;;;;4.05;2.35;;;;;;;21.46;55.53;101328.38;6217184;28;20551;-70
2022/09/07 10:53:59;;;;;;;5.57;3.22;;;;;;;22.55;53.39;101319.53;6223661;28;20241;-72
2022/09/07 10:57:29;;;;;;;6.63;3.90;;;;;;;23.10;52.12;101325.94;6230545;28;20227;-73
2022/09/07 11:01:03;;;;;;;4.70;2.58;;;;;;;23.67;50.30;101309.81;6221698;28;20224;-72
2022/09/07 11:04:43;;;;;;;4.43;2.58;;;;;;;23.81;49.07;101304.09;6226114;28;20224;-73
2022/09/07 11:08:22;;;;;;;2.53;2.33;;;;;;;24.19;48.93;101307.06;6237690;28;20220;-73
2022/09/07 11:11:46;;;;;;;2.58;2.20;;;;;;;24.91;46.56;101301.34;6231909;28;20221;-70
2022/09/07 11:15:18;;;;;;;3.22;2.40;;;;;;;24.86;46.09;101300.31;6226020;28;20611;-71
2022/09/07 11:18:43;;;;;;;2.70;2.47;;;;;;;26.78;43.14;101298.34;6223803;28;20617;-70
2022/09/07 11:22:15;;;;;;;3.47;1.95;;;;;;;27.94;41.00;101293.19;6226149;28;20244;-71
2022/09/07 11:25:43;;;;;;;3.70;2.67;;;;;;;29.46;37.94;101284.34;6226335;28;20224;-71
2022/09/07 11:29:13;;;;;;;2.33;2.13;;;;;;;30.16;36.48;101284.72;6227307;28;20236;-71
2022/09/07 11:32:38;;;;;;;2.58;1.58;;;;;;;30.62;36.54;101269.56;6228404;28;20233;-71
2022/09/07 11:36:02;;;;;;;2.08;1.88;;;;;;;30.85;35.58;101274.00;6202791;28;20244;-70
2022/09/07 11:39:29;;;;;;;4.30;2.60;;;;;;;28.76;38.75;101261.56;6234693;28;20228;-72
2022/09/07 11:42:58;;;;;;;2.05;1.73;;;;;;;29.77;37.76;101257.94;6238687;28;20323;-71
2022/09/07 11:46:26;;;;;;;5.35;1.85;;;;;;;30.35;35.70;101255.56;6207805;28;20236;-71
2022/09/07 11:49:52;;;;;;;2.00;1.90;;;;;;;30.61;36.15;101248.38;6216086;28;20231;-72
2022/09/07 11:53:18;;;;;;;2.30;2.10;;;;;;;31.26;34.35;101249.16;6221836;28;20274;-69
2022/09/07 11:56:41;;;;;;;3.63;2.33;;;;;;;29.79;37.32;101239.91;6232854;28;20614;-70
2022/09/07 12:00:09;;;;;;;3.83;2.05;;;;;;;30.02;36.73;101236.94;6230343;28;20508;-71
2022/09/07 12:03:56;;;;;;;2.50;1.70;;;;;;;30.99;35.96;101239.97;6231300;28;20267;-71
2022/09/07 12:07:38;;;;;;;3.67;2.33;;;;;;;29.78;36.75;101238.25;6230439;28;20227;-70
2022/09/07 12:11:13;;;;;;;2.28;2.08;;;;;;;27.54;41.19;101233.97;6230168;28;20233;-71
2022/09/07 12:14:46;;;;;;;1.90;1.80;;;;;;;28.94;38.95;101239.16;6223459;28;20236;-71
2022/09/07 12:18:24;;;;;;;3.53;2.40;;;;;;;31.57;34.24;101233.59;6230384;28;20240;-71
2022/09/07 12:21:49;;;;;;;2.33;2.13;;;;;;;33.18;32.31;101230.88;6196168;28;20236;-71
2022/09/07 12:25:17;;;;;;;2.35;1.50;;;;;;;32.95;31.61;101221.03;6216177;28;20737;-70
2022/09/07 12:29:05;;;;;;;2.92;2.22;;;;;;;34.73;28.97;101215.06;6212541;28;20225;-71
2022/09/07 12:33:03;;;;;;;1.95;1.60;;;;;;;32.15;31.83;101216.75;6223790;28;20238;-72
2022/09/07 12:36:49;;;;;;;2.55;2.35;;;;;;;33.37;30.48;101207.72;6223386;28;20377;-72
2022/09/07 12:40:47;;;;;;;1.70;1.60;;;;;;;35.67;27.47;101211.94;6211811;28;20599;-72
2022/09/07 12:44:16;;;;;;;1.60;1.50;;;;;;;31.59;33.05;101203.47;6208519;28;20260;-71
2022/09/07 12:47:38;;;;;;;3.40;2.53;;;;;;;32.27;33.13;101208.97;6219867;28;20509;-71
2022/09/07 12:51:06;;;;;;;3.33;2.70;;;;;;;32.95;31.81;101221.03;6230446;28;20224;-73
2022/09/07 12:54:35;;;;;;;3.25;1.63;;;;;;;35.41;29.15;101211.25;6226961;28;20216;-69
2022/09/07 12:58:09;;;;;;;4.05;1.70;;;;;;;36.88;26.63;101219.03;6230715;28;20240;-71
2022/09/07 13:01:39;;;;;;;4.03;2.40;;;;;;;35.20;28.44;101221.81;6222637;28;20316;-70
2022/09/07 13:05:13;;;;;;;2.85;2.60;;;;;;;34.49;29.94;101218.53;6235510;28;20550;-71
2022/09/07 13:09:07;;;;;;;2.40;1.80;;;;;;;35.53;29.15;101208.94;6224496;28;20495;-71
2022/09/07 13:12:37;;;;;;;3.00;2.28;;;;;;;32.76;32.40;101220.69;6230874;28;20596;-70
2022/09/07 13:16:27;;;;;;;3.97;2.63;;;;;;;32.18;33.93;101207.84;6201075;28;20311;-72
2022/09/07 13:20:16;;;;;;;4.18;2.95;;;;;;;30.75;36.33;101211.50;6226941;28;20236;-72
2022/09/07 13:23:38;;;;;;;2.55;2.35;;;;;;;34.28;31.17;101211.28;6224870;28;20251;-72
2022/09/07 13:27:03;;;;;;;2.83;2.63;;;;;;;31.94;34.61;101209.34;6226977;28;20228;-71
2022/09/07 13:30:47;;;;;;;3.92;3.42;;;;;;;31.39;35.27;101209.75;6223952;28;20263;-72
2022/09/07 13:34:36;;;;;;;2.55;2.40;;;;;;;32.14;34.19;101208.66;6220452;28;20240;-71
2022/09/07 13:38:00;;;;;;;5.13;2.72;;;;;;;30.29;37.10;101203.66;6220866;28;20257;-70
2022/09/07 13:41:24;;;;;;;3.10;2.80;;;;;;;29.59;39.23;101199.78;6200221;28;21128;-71
2022/09/07 13:44:53;;;;;;;2.53;2.33;;;;;;;32.87;33.92;101191.66;6219036;28;20348;-71
2022/09/07 13:48:24;;;;;;;2.60;2.42;;;;;;;32.32;33.79;101194.22;6230553;28;20255;-70
2022/09/07 13:51:51;;;;;;;3.90;2.88;;;;;;;31.47;35.41;101195.31;6190649;28;20463;-71
2022/09/07 13:55:32;;;;;;;3.53;2.58;;;;;;;30.00;38.40;101211.31;6226050;28;20636;-73
2022/09/07 13:58:53;;;;;;;4.75;3.75;;;;;;;30.37;38.29;101197.69;6227534;28;20228;-72
2022/09/07 14:02:22;;;;;;;3.00;2.70;;;;;;;31.25;36.60;101197.28;6224743;28;20241;-71
2022/09/07 14:05:45;;;;;;;1.70;1.60;;;;;;;32.29;35.13;101189.19;6221163;28;20529;-72
2022/09/07 14:09:13;;;;;;;4.32;3.63;;;;;;;33.23;33.49;101189.81;6221366;28;20358;-72
2022/09/07 14:12:42;;;;;;;2.42;2.22;;;;;;;31.46;36.42;101187.19;6216157;28;20239;-71
2022/09/07 14:16:03;;;;;;;3.10;2.80;;;;;;;29.28;40.76;101192.88;6232270;28;20247;-72
2022/09/07 14:19:27;;;;;;;3.03;2.72;;;;;;;28.04;43.53;101187.25;6231845;28;20314;-72
2022/09/07 14:22:49;;;;;;;2.83;2.63;;;;;;;28.26;43.23;101175.31;6224083;28;20320;-74
2022/09/07 14:26:16;;;;;;;2.55;2.35;;;;;;;27.38;45.32;101190.34;6228213;28;20236;-72
2022/09/07 14:29:38;;;;;;;3.85;3.45;;;;;;;26.95;45.96;101185.06;6217966;28;20221;-72
2022/09/07 14:33:02;;;;;;;3.40;2.65;;;;;;;28.35;43.36;101182.13;6205978;28;20516;-72
2022/09/07 14:36:29;;;;;;;4.90;3.15;;;;;;;28.45;42.97;101185.13;6193394;28;20229;-72
2022/09/07 14:39:52;;;;;;;2.65;2.08;;;;;;;27.78;45.54;101179.41;6217775;28;20228;-72
2022/09/07 14:43:28;;;;;;;3.08;2.78;;;;;;;27.46;45.87;101171.47;6213619;28;20232;-71
2022/09/07 14:46:49;;;;;;;2.88;2.50;;;;;;;26.72;47.44;101179.44;6225772;28;20252;-72
2022/09/07 14:50:18;;;;;;;4.00;3.10;;;;;;;26.60;48.09;101178.47;6203884;28;20248;-72
2022/09/07 14:53:39;;;;;;;2.65;2.45;;;;;;;26.40;48.97;101180.69;6221040;28;20271;-73
2022/09/07 14:57:06;;;;;;;2.65;2.45;;;;;;;25.97;50.08;101186.28;6221222;28;20594;-72
2022/09/07 15:00:31;;;;;;;2.50;2.20;;;;;;;25.74;50.68;101166.75;6227915;28;20260;-73
2022/09/07 15:03:58;;;;;;;3.40;3.10;;;;;;;25.42;51.80;101168.75;6225976;28;20224;-71
2022/09/07 15:07:37;;;;;;;4.43;3.42;;;;;;;25.17;52.95;101170.63;6221816;28;20224;-70
2022/09/07 15:11:02;;;;;;;6.60;3.88;;;;;;;25.36;53.20;101178.78;6222001;28;20240;-70
2022/09/07 15:14:25;;;;;;;9.35;3.42;;;;;;;25.37;52.95;101166.63;6219462;28;20229;-71
2022/09/07 15:17:46;;;;;;;5.28;2.47;;;;;;;25.50;52.12;101165.72;6221819;28;21229;-70
2022/09/07 15:21:08;;;;;;;2.80;2.60;;;;;;;25.30;52.42;101163.06;6218120;28;20236;-69
2022/09/07 15:24:29;;;;;;;3.17;2.88;;;;;;;25.36;53.05;101156.69;6218458;28;20319;-73
2022/09/07 15:27:51;;;;;;;2.92;2.65;;;;;;;25.54;52.46;101160.56;6218766;28;20224;-75
2022/09/07 15:31:14;;;;;;;3.78;3.25;;;;;;;25.64;53.60;101160.91;6215085;28;20537;-73
2022/09/07 15:34:35;;;;;;;7.30;3.03;;;;;;;25.64;53.87;101163.69;6218402;28;20239;-75
2022/09/07 15:37:56;;;;;;;5.65;2.92;;;;;;;25.63;54.60;101157.31;6224252;28;20267;-75
2022/09/07 15:41:18;;;;;;;5.30;2.92;;;;;;;25.64;53.27;101158.97;6219192;28;20236;-70
2022/09/07 15:44:39;;;;;;;3.53;3.03;;;;;;;25.76;53.95;101156.31;6213983;28;20235;-77
2022/09/07 15:48:01;;;;;;;2.88;2.65;;;;;;;25.73;52.53;101152.09;6219088;28;20232;-74
2022/09/07 15:51:22;;;;;;;2.92;2.70;;;;;;;25.74;53.18;101141.91;6220021;28;20236;-74
2022/09/07 15:54:43;;;;;;;4.03;2.95;;;;;;;25.67;52.29;101146.63;6215401;28;20228;-75
2022/09/07 15:58:05;;;;;;;14.13;5.95;;;;;;;25.63;53.86;101146.25;6224945;28;20232;-75